sensor_id;sensor_type;location;lat;lon;timestamp;P1;durP1;ratioP1;P2;durP2;ratioP2
59028;SDS011;45919;51.420;5.454;2022-10-16T00:00:36;6.35;;;4.72;;
59028;SDS011;45919;51.420;5.454;2022-10-16T00:01:40;7.72;;;4.55;;
59028;SDS011;45919;51.420;5.454;2022-10-16T00:02:41;7.15;;;4.97;;
59028;SDS011;45919;51.420;5.454;2022-10-16T00:03:44;6.35;;;4.78;;
59028;SDS011;45919;51.420;5.454;2022-10-16T00:04:46;7.40;;;5.00;;
59028;SDS011;45919;51.420;5.454;2022-10-16T00:05:47;7.43;;;4.75;;
59028;SDS011;45919;51.420;5.454;2022-10-16T00:06:49;9.63;;;4.97;;
59028;SDS011;45919;51.420;5.454;2022-10-16T00:07:51;9.10;;;5.13;;
59028;SDS011;45919;51.420;5.454;2022-10-16T00:08:53;7.32;;;4.78;;
59028;SDS011;45919;51.420;5.454;2022-10-16T00:09:55;7.47;;;4.90;;
59028;SDS011;45919;51.420;5.454;2022-10-16T00:11:02;6.50;;;4.40;;
59028;SDS011;45919;51.420;5.454;2022-10-16T00:12:09;6.30;;;4.70;;
59028;SDS011;45919;51.420;5.454;2022-10-16T00:13:11;6.97;;;4.55;;
59028;SDS011;45919;51.420;5.454;2022-10-16T00:14:13;8.88;;;4.82;;
59028;SDS011;45919;51.420;5.454;2022-10-16T00:15:15;7.97;;;5.18;;
59028;SDS011;45919;51.420;5.454;2022-10-16T00:16:17;6.50;;;4.32;;
59028;SDS011;45919;51.420;5.454;2022-10-16T00:17:20;7.50;;;4.95;;
59028;SDS011;45919;51.420;5.454;2022-10-16T00:18:21;7.53;;;4.47;;
59028;SDS011;45919;51.420;5.454;2022-10-16T00:19:23;6.35;;;4.50;;
59028;SDS011;45919;51.420;5.454;2022-10-16T00:20:25;8.25;;;4.97;;
59028;SDS011;45919;51.420;5.454;2022-10-16T00:21:28;7.00;;;4.65;;
59028;SDS011;45919;51.420;5.454;2022-10-16T00:22:30;6.82;;;4.82;;
59028;SDS011;45919;51.420;5.454;2022-10-16T00:23:32;7.43;;;4.38;;
59028;SDS011;45919;51.420;5.454;2022-10-16T00:24:34;5.95;;;4.25;;
59028;SDS011;45919;51.420;5.454;2022-10-16T00:25:36;6.32;;;4.30;;
59028;SDS011;45919;51.420;5.454;2022-10-16T00:26:38;7.53;;;4.22;;
59028;SDS011;45919;51.420;5.454;2022-10-16T00:27:40;6.63;;;4.45;;
59028;SDS011;45919;51.420;5.454;2022-10-16T00:28:42;6.93;;;4.32;;
59028;SDS011;45919;51.420;5.454;2022-10-16T00:29:43;6.68;;;4.40;;
59028;SDS011;45919;51.420;5.454;2022-10-16T00:30:45;6.47;;;4.18;;
59028;SDS011;45919;51.420;5.454;2022-10-16T00:31:46;5.20;;;4.13;;
59028;SDS011;45919;51.420;5.454;2022-10-16T00:32:48;5.78;;;4.30;;
59028;SDS011;45919;51.420;5.454;2022-10-16T00:33:49;7.68;;;4.40;;
59028;SDS011;45919;51.420;5.454;2022-10-16T00:34:52;8.55;;;4.53;;
59028;SDS011;45919;51.420;5.454;2022-10-16T00:35:57;6.00;;;3.97;;
59028;SDS011;45919;51.420;5.454;2022-10-16T00:37:02;7.30;;;4.38;;
59028;SDS011;45919;51.420;5.454;2022-10-16T00:38:04;7.15;;;4.38;;
59028;SDS011;45919;51.420;5.454;2022-10-16T00:39:05;7.28;;;4.88;;
59028;SDS011;45919;51.420;5.454;2022-10-16T00:40:07;5.60;;;3.90;;
59028;SDS011;45919;51.420;5.454;2022-10-16T00:41:11;7.15;;;4.43;;
59028;SDS011;45919;51.420;5.454;2022-10-16T00:42:15;6.72;;;4.30;;
59028;SDS011;45919;51.420;5.454;2022-10-16T00:44:46;7.75;;;4.22;;
59028;SDS011;45919;51.420;5.454;2022-10-16T00:45:51;7.50;;;4.50;;
59028;SDS011;45919;51.420;5.454;2022-10-16T00:46:52;5.40;;;3.95;;
59028;SDS011;45919;51.420;5.454;2022-10-16T00:47:54;6.90;;;4.00;;
59028;SDS011;45919;51.420;5.454;2022-10-16T00:50:38;6.18;;;4.07;;
59028;SDS011;45919;51.420;5.454;2022-10-16T00:51:49;5.53;;;4.07;;
59028;SDS011;45919;51.420;5.454;2022-10-16T00:52:53;7.13;;;4.15;;
59028;SDS011;45919;51.420;5.454;2022-10-16T00:53:56;7.40;;;4.00;;
59028;SDS011;45919;51.420;5.454;2022-10-16T00:54:58;7.18;;;4.30;;
59028;SDS011;45919;51.420;5.454;2022-10-16T00:56:02;6.53;;;3.85;;
59028;SDS011;45919;51.420;5.454;2022-10-16T00:57:05;6.30;;;4.25;;
59028;SDS011;45919;51.420;5.454;2022-10-16T00:58:08;5.95;;;3.95;;
59028;SDS011;45919;51.420;5.454;2022-10-16T01:00:24;6.20;;;3.83;;
59028;SDS011;45919;51.420;5.454;2022-10-16T01:01:27;7.65;;;4.30;;
59028;SDS011;45919;51.420;5.454;2022-10-16T01:02:29;5.75;;;3.92;;
59028;SDS011;45919;51.420;5.454;2022-10-16T01:03:32;6.25;;;3.90;;
59028;SDS011;45919;51.420;5.454;2022-10-16T01:04:37;7.32;;;4.35;;
59028;SDS011;45919;51.420;5.454;2022-10-16T01:05:45;6.82;;;4.32;;
59028;SDS011;45919;51.420;5.454;2022-10-16T01:07:44;6.50;;;3.75;;
59028;SDS011;45919;51.420;5.454;2022-10-16T01:08:34;5.82;;;3.83;;
59028;SDS011;45919;51.420;5.454;2022-10-16T01:09:57;5.72;;;3.90;;
59028;SDS011;45919;51.420;5.454;2022-10-16T01:11:09;9.38;;;3.90;;
59028;SDS011;45919;51.420;5.454;2022-10-16T01:12:42;5.68;;;3.60;;
59028;SDS011;45919;51.420;5.454;2022-10-16T01:13:51;5.85;;;3.70;;
59028;SDS011;45919;51.420;5.454;2022-10-16T01:15:01;8.27;;;4.15;;
59028;SDS011;45919;51.420;5.454;2022-10-16T01:16:07;6.15;;;3.78;;
59028;SDS011;45919;51.420;5.454;2022-10-16T01:18:41;4.88;;;3.92;;
59028;SDS011;45919;51.420;5.454;2022-10-16T01:19:50;5.05;;;3.75;;
59028;SDS011;45919;51.420;5.454;2022-10-16T01:21:29;5.20;;;3.47;;
59028;SDS011;45919;51.420;5.454;2022-10-16T01:25:02;5.65;;;3.67;;
59028;SDS011;45919;51.420;5.454;2022-10-16T01:28:36;8.15;;;3.38;;
59028;SDS011;45919;51.420;5.454;2022-10-16T01:31:26;8.00;;;3.63;;
59028;SDS011;45919;51.420;5.454;2022-10-16T01:33:47;7.65;;;3.70;;
59028;SDS011;45919;51.420;5.454;2022-10-16T01:36:28;6.05;;;3.45;;
59028;SDS011;45919;51.420;5.454;2022-10-16T01:37:40;5.60;;;3.28;;
59028;SDS011;45919;51.420;5.454;2022-10-16T01:38:48;4.75;;;3.38;;
59028;SDS011;45919;51.420;5.454;2022-10-16T01:39:52;4.13;;;3.00;;
59028;SDS011;45919;51.420;5.454;2022-10-16T01:41:00;5.25;;;3.83;;
59028;SDS011;45919;51.420;5.454;2022-10-16T01:42:09;5.85;;;3.60;;
59028;SDS011;45919;51.420;5.454;2022-10-16T01:43:15;6.13;;;3.03;;
59028;SDS011;45919;51.420;5.454;2022-10-16T01:44:23;4.82;;;3.55;;
59028;SDS011;45919;51.420;5.454;2022-10-16T01:45:31;6.18;;;3.40;;
59028;SDS011;45919;51.420;5.454;2022-10-16T01:46:34;6.05;;;3.60;;
59028;SDS011;45919;51.420;5.454;2022-10-16T01:47:39;5.90;;;3.50;;
59028;SDS011;45919;51.420;5.454;2022-10-16T01:48:42;6.00;;;3.70;;
59028;SDS011;45919;51.420;5.454;2022-10-16T01:49:44;4.25;;;3.15;;
59028;SDS011;45919;51.420;5.454;2022-10-16T01:52:22;5.47;;;3.42;;
59028;SDS011;45919;51.420;5.454;2022-10-16T01:53:27;5.82;;;3.45;;
59028;SDS011;45919;51.420;5.454;2022-10-16T01:54:30;6.38;;;3.50;;
59028;SDS011;45919;51.420;5.454;2022-10-16T01:55:36;5.72;;;2.95;;
59028;SDS011;45919;51.420;5.454;2022-10-16T01:56:45;5.25;;;3.50;;
59028;SDS011;45919;51.420;5.454;2022-10-16T01:57:48;5.07;;;3.40;;
59028;SDS011;45919;51.420;5.454;2022-10-16T01:58:54;5.35;;;3.13;;
59028;SDS011;45919;51.420;5.454;2022-10-16T02:00:04;6.38;;;3.17;;
59028;SDS011;45919;51.420;5.454;2022-10-16T02:01:10;4.57;;;2.90;;
59028;SDS011;45919;51.420;5.454;2022-10-16T02:02:20;5.25;;;3.58;;
59028;SDS011;45919;51.420;5.454;2022-10-16T02:03:23;3.63;;;2.67;;
59028;SDS011;45919;51.420;5.454;2022-10-16T02:05:28;5.03;;;3.00;;
59028;SDS011;45919;51.420;5.454;2022-10-16T02:06:34;6.32;;;3.08;;
59028;SDS011;45919;51.420;5.454;2022-10-16T02:07:37;4.43;;;3.10;;
59028;SDS011;45919;51.420;5.454;2022-10-16T02:08:38;4.80;;;2.80;;
59028;SDS011;45919;51.420;5.454;2022-10-16T02:09:41;5.60;;;3.22;;
59028;SDS011;45919;51.420;5.454;2022-10-16T02:10:43;5.40;;;2.97;;
59028;SDS011;45919;51.420;5.454;2022-10-16T02:11:44;6.82;;;3.40;;
59028;SDS011;45919;51.420;5.454;2022-10-16T02:13:30;3.90;;;2.70;;
59028;SDS011;45919;51.420;5.454;2022-10-16T02:14:17;4.80;;;2.88;;
59028;SDS011;45919;51.420;5.454;2022-10-16T02:15:19;6.18;;;3.10;;
59028;SDS011;45919;51.420;5.454;2022-10-16T02:16:23;5.13;;;3.13;;
59028;SDS011;45919;51.420;5.454;2022-10-16T02:17:34;6.53;;;3.17;;
59028;SDS011;45919;51.420;5.454;2022-10-16T02:18:36;4.55;;;2.90;;
59028;SDS011;45919;51.420;5.454;2022-10-16T02:19:38;5.35;;;2.97;;
59028;SDS011;45919;51.420;5.454;2022-10-16T02:20:51;4.70;;;3.10;;
59028;SDS011;45919;51.420;5.454;2022-10-16T02:21:57;4.80;;;3.20;;
59028;SDS011;45919;51.420;5.454;2022-10-16T02:23:01;4.70;;;2.92;;
59028;SDS011;45919;51.420;5.454;2022-10-16T02:25:15;5.57;;;2.83;;
59028;SDS011;45919;51.420;5.454;2022-10-16T02:28:22;4.97;;;3.08;;
59028;SDS011;45919;51.420;5.454;2022-10-16T02:29:30;5.40;;;2.90;;
59028;SDS011;45919;51.420;5.454;2022-10-16T02:30:45;5.88;;;3.05;;
59028;SDS011;45919;51.420;5.454;2022-10-16T02:31:54;3.88;;;2.63;;
59028;SDS011;45919;51.420;5.454;2022-10-16T02:32:59;4.65;;;3.00;;
59028;SDS011;45919;51.420;5.454;2022-10-16T02:34:04;4.03;;;2.83;;
59028;SDS011;45919;51.420;5.454;2022-10-16T02:35:08;5.18;;;3.20;;
59028;SDS011;45919;51.420;5.454;2022-10-16T02:36:11;4.13;;;2.95;;
59028;SDS011;45919;51.420;5.454;2022-10-16T02:37:13;3.78;;;2.85;;
59028;SDS011;45919;51.420;5.454;2022-10-16T02:38:15;6.53;;;2.78;;
59028;SDS011;45919;51.420;5.454;2022-10-16T02:39:18;5.47;;;3.10;;
59028;SDS011;45919;51.420;5.454;2022-10-16T02:40:21;4.93;;;2.90;;
59028;SDS011;45919;51.420;5.454;2022-10-16T02:41:24;3.55;;;2.80;;
59028;SDS011;45919;51.420;5.454;2022-10-16T02:42:32;6.22;;;3.00;;
59028;SDS011;45919;51.420;5.454;2022-10-16T02:43:38;5.95;;;2.90;;
59028;SDS011;45919;51.420;5.454;2022-10-16T02:44:39;6.18;;;3.15;;
59028;SDS011;45919;51.420;5.454;2022-10-16T02:45:41;4.93;;;2.95;;
59028;SDS011;45919;51.420;5.454;2022-10-16T02:46:43;4.28;;;2.95;;
59028;SDS011;45919;51.420;5.454;2022-10-16T02:47:44;5.72;;;3.08;;
59028;SDS011;45919;51.420;5.454;2022-10-16T02:48:46;5.32;;;2.88;;
59028;SDS011;45919;51.420;5.454;2022-10-16T02:49:48;3.95;;;3.10;;
59028;SDS011;45919;51.420;5.454;2022-10-16T02:50:49;5.82;;;3.00;;
59028;SDS011;45919;51.420;5.454;2022-10-16T02:51:51;4.90;;;3.05;;
59028;SDS011;45919;51.420;5.454;2022-10-16T02:52:52;5.45;;;3.20;;
59028;SDS011;45919;51.420;5.454;2022-10-16T02:53:54;5.15;;;3.13;;
59028;SDS011;45919;51.420;5.454;2022-10-16T02:54:56;5.63;;;2.97;;
59028;SDS011;45919;51.420;5.454;2022-10-16T02:55:57;5.00;;;3.00;;
59028;SDS011;45919;51.420;5.454;2022-10-16T02:56:59;5.85;;;3.25;;
59028;SDS011;45919;51.420;5.454;2022-10-16T02:58:00;4.60;;;3.30;;
59028;SDS011;45919;51.420;5.454;2022-10-16T02:59:02;5.63;;;3.30;;
59028;SDS011;45919;51.420;5.454;2022-10-16T03:00:07;6.43;;;3.28;;
59028;SDS011;45919;51.420;5.454;2022-10-16T03:01:13;5.15;;;3.38;;
59028;SDS011;45919;51.420;5.454;2022-10-16T03:02:15;4.38;;;3.03;;
59028;SDS011;45919;51.420;5.454;2022-10-16T03:03:17;5.85;;;3.13;;
59028;SDS011;45919;51.420;5.454;2022-10-16T03:04:18;4.95;;;3.13;;
59028;SDS011;45919;51.420;5.454;2022-10-16T03:05:20;5.15;;;2.95;;
59028;SDS011;45919;51.420;5.454;2022-10-16T03:06:26;6.07;;;2.97;;
59028;SDS011;45919;51.420;5.454;2022-10-16T03:07:28;5.30;;;3.38;;
59028;SDS011;45919;51.420;5.454;2022-10-16T03:08:29;3.70;;;2.80;;
59028;SDS011;45919;51.420;5.454;2022-10-16T03:09:31;4.72;;;3.17;;
59028;SDS011;45919;51.420;5.454;2022-10-16T03:10:33;5.13;;;3.05;;
59028;SDS011;45919;51.420;5.454;2022-10-16T03:11:34;4.47;;;3.28;;
59028;SDS011;45919;51.420;5.454;2022-10-16T03:12:36;7.68;;;3.42;;
59028;SDS011;45919;51.420;5.454;2022-10-16T03:13:37;8.20;;;3.50;;
59028;SDS011;45919;51.420;5.454;2022-10-16T03:14:39;4.88;;;3.05;;
59028;SDS011;45919;51.420;5.454;2022-10-16T03:15:41;4.80;;;2.97;;
59028;SDS011;45919;51.420;5.454;2022-10-16T03:16:42;4.30;;;3.08;;
59028;SDS011;45919;51.420;5.454;2022-10-16T03:17:44;6.28;;;3.17;;
59028;SDS011;45919;51.420;5.454;2022-10-16T03:18:49;5.93;;;3.17;;
59028;SDS011;45919;51.420;5.454;2022-10-16T03:19:51;4.60;;;2.50;;
59028;SDS011;45919;51.420;5.454;2022-10-16T03:20:52;5.20;;;3.13;;
59028;SDS011;45919;51.420;5.454;2022-10-16T03:21:54;7.65;;;3.28;;
59028;SDS011;45919;51.420;5.454;2022-10-16T03:22:55;4.00;;;3.08;;
59028;SDS011;45919;51.420;5.454;2022-10-16T03:23:57;4.80;;;3.15;;
59028;SDS011;45919;51.420;5.454;2022-10-16T03:24:58;4.40;;;2.80;;
59028;SDS011;45919;51.420;5.454;2022-10-16T03:26:00;4.68;;;2.88;;
59028;SDS011;45919;51.420;5.454;2022-10-16T03:27:02;4.78;;;3.22;;
59028;SDS011;45919;51.420;5.454;2022-10-16T03:28:03;4.35;;;2.90;;
59028;SDS011;45919;51.420;5.454;2022-10-16T03:29:05;4.60;;;2.83;;
59028;SDS011;45919;51.420;5.454;2022-10-16T03:30:08;4.80;;;2.63;;
59028;SDS011;45919;51.420;5.454;2022-10-16T03:31:10;4.28;;;2.90;;
59028;SDS011;45919;51.420;5.454;2022-10-16T03:32:11;4.85;;;2.80;;
59028;SDS011;45919;51.420;5.454;2022-10-16T03:33:13;5.25;;;3.00;;
59028;SDS011;45919;51.420;5.454;2022-10-16T03:34:15;6.03;;;3.10;;
59028;SDS011;45919;51.420;5.454;2022-10-16T03:35:16;4.63;;;2.58;;
59028;SDS011;45919;51.420;5.454;2022-10-16T03:36:18;4.85;;;3.10;;
59028;SDS011;45919;51.420;5.454;2022-10-16T03:37:19;4.95;;;3.05;;
59028;SDS011;45919;51.420;5.454;2022-10-16T03:38:21;3.58;;;2.70;;
59028;SDS011;45919;51.420;5.454;2022-10-16T03:39:23;5.15;;;2.63;;
59028;SDS011;45919;51.420;5.454;2022-10-16T03:40:25;5.15;;;2.70;;
59028;SDS011;45919;51.420;5.454;2022-10-16T03:41:26;3.47;;;2.85;;
59028;SDS011;45919;51.420;5.454;2022-10-16T03:42:28;4.20;;;2.75;;
59028;SDS011;45919;51.420;5.454;2022-10-16T03:43:29;3.58;;;2.80;;
59028;SDS011;45919;51.420;5.454;2022-10-16T03:44:31;5.13;;;2.80;;
59028;SDS011;45919;51.420;5.454;2022-10-16T03:45:32;5.05;;;3.10;;
59028;SDS011;45919;51.420;5.454;2022-10-16T03:46:34;5.03;;;3.03;;
59028;SDS011;45919;51.420;5.454;2022-10-16T03:47:36;4.40;;;2.70;;
59028;SDS011;45919;51.420;5.454;2022-10-16T03:48:37;3.70;;;2.60;;
59028;SDS011;45919;51.420;5.454;2022-10-16T03:49:39;4.38;;;2.65;;
59028;SDS011;45919;51.420;5.454;2022-10-16T03:50:40;4.72;;;2.83;;
59028;SDS011;45919;51.420;5.454;2022-10-16T03:51:42;8.07;;;2.90;;
59028;SDS011;45919;51.420;5.454;2022-10-16T03:52:44;5.03;;;3.13;;
59028;SDS011;45919;51.420;5.454;2022-10-16T03:53:45;6.32;;;2.85;;
59028;SDS011;45919;51.420;5.454;2022-10-16T03:54:47;6.18;;;3.38;;
59028;SDS011;45919;51.420;5.454;2022-10-16T03:55:48;4.80;;;2.92;;
59028;SDS011;45919;51.420;5.454;2022-10-16T03:56:50;4.13;;;3.03;;
59028;SDS011;45919;51.420;5.454;2022-10-16T03:57:51;5.05;;;2.72;;
59028;SDS011;45919;51.420;5.454;2022-10-16T03:58:53;5.07;;;3.08;;
59028;SDS011;45919;51.420;5.454;2022-10-16T03:59:54;5.57;;;3.10;;
59028;SDS011;45919;51.420;5.454;2022-10-16T04:00:56;5.57;;;3.00;;
59028;SDS011;45919;51.420;5.454;2022-10-16T04:01:57;5.80;;;3.03;;
59028;SDS011;45919;51.420;5.454;2022-10-16T04:02:59;4.95;;;3.00;;
59028;SDS011;45919;51.420;5.454;2022-10-16T04:04:01;4.90;;;2.70;;
59028;SDS011;45919;51.420;5.454;2022-10-16T04:05:02;3.63;;;2.70;;
59028;SDS011;45919;51.420;5.454;2022-10-16T04:06:04;6.30;;;3.13;;
59028;SDS011;45919;51.420;5.454;2022-10-16T04:07:06;4.95;;;3.05;;
59028;SDS011;45919;51.420;5.454;2022-10-16T04:08:07;5.63;;;2.95;;
59028;SDS011;45919;51.420;5.454;2022-10-16T04:09:09;5.68;;;3.00;;
59028;SDS011;45919;51.420;5.454;2022-10-16T04:10:10;5.90;;;3.53;;
59028;SDS011;45919;51.420;5.454;2022-10-16T04:11:12;4.13;;;2.80;;
59028;SDS011;45919;51.420;5.454;2022-10-16T04:12:14;4.03;;;3.05;;
59028;SDS011;45919;51.420;5.454;2022-10-16T04:13:15;5.50;;;3.35;;
59028;SDS011;45919;51.420;5.454;2022-10-16T04:14:17;4.55;;;2.80;;
59028;SDS011;45919;51.420;5.454;2022-10-16T04:15:18;3.70;;;2.78;;
59028;SDS011;45919;51.420;5.454;2022-10-16T04:16:20;6.53;;;3.20;;
59028;SDS011;45919;51.420;5.454;2022-10-16T04:17:21;4.25;;;3.17;;
59028;SDS011;45919;51.420;5.454;2022-10-16T04:18:24;4.60;;;2.97;;
59028;SDS011;45919;51.420;5.454;2022-10-16T04:19:28;5.47;;;2.97;;
59028;SDS011;45919;51.420;5.454;2022-10-16T04:20:29;6.40;;;3.70;;
59028;SDS011;45919;51.420;5.454;2022-10-16T04:21:31;6.78;;;3.38;;
59028;SDS011;45919;51.420;5.454;2022-10-16T04:22:32;5.82;;;2.97;;
59028;SDS011;45919;51.420;5.454;2022-10-16T04:23:34;6.30;;;3.22;;
59028;SDS011;45919;51.420;5.454;2022-10-16T04:24:35;5.10;;;3.30;;
59028;SDS011;45919;51.420;5.454;2022-10-16T04:25:37;5.63;;;3.33;;
59028;SDS011;45919;51.420;5.454;2022-10-16T04:26:39;4.28;;;3.20;;
59028;SDS011;45919;51.420;5.454;2022-10-16T04:27:40;5.38;;;2.83;;
59028;SDS011;45919;51.420;5.454;2022-10-16T04:28:42;5.20;;;3.10;;
59028;SDS011;45919;51.420;5.454;2022-10-16T04:29:44;6.45;;;3.60;;
59028;SDS011;45919;51.420;5.454;2022-10-16T04:30:45;5.93;;;3.70;;
59028;SDS011;45919;51.420;5.454;2022-10-16T04:31:47;5.60;;;3.38;;
59028;SDS011;45919;51.420;5.454;2022-10-16T04:32:49;6.60;;;3.75;;
59028;SDS011;45919;51.420;5.454;2022-10-16T04:33:51;6.18;;;3.38;;
59028;SDS011;45919;51.420;5.454;2022-10-16T04:34:52;4.28;;;3.33;;
59028;SDS011;45919;51.420;5.454;2022-10-16T04:35:57;6.55;;;3.38;;
59028;SDS011;45919;51.420;5.454;2022-10-16T04:37:00;4.57;;;3.33;;
59028;SDS011;45919;51.420;5.454;2022-10-16T04:38:02;5.45;;;3.42;;
59028;SDS011;45919;51.420;5.454;2022-10-16T04:39:04;4.88;;;2.83;;
59028;SDS011;45919;51.420;5.454;2022-10-16T04:40:05;4.95;;;3.40;;
59028;SDS011;45919;51.420;5.454;2022-10-16T04:41:07;8.00;;;3.20;;
59028;SDS011;45919;51.420;5.454;2022-10-16T04:42:09;4.70;;;3.40;;
59028;SDS011;45919;51.420;5.454;2022-10-16T04:43:10;3.92;;;2.63;;
59028;SDS011;45919;51.420;5.454;2022-10-16T04:44:12;4.90;;;2.92;;
59028;SDS011;45919;51.420;5.454;2022-10-16T04:45:14;5.32;;;2.90;;
59028;SDS011;45919;51.420;5.454;2022-10-16T04:46:16;6.57;;;3.10;;
59028;SDS011;45919;51.420;5.454;2022-10-16T04:47:18;5.38;;;3.00;;
59028;SDS011;45919;51.420;5.454;2022-10-16T04:48:19;7.35;;;3.03;;
59028;SDS011;45919;51.420;5.454;2022-10-16T04:49:21;5.63;;;3.10;;
59028;SDS011;45919;51.420;5.454;2022-10-16T04:50:23;4.75;;;2.97;;
59028;SDS011;45919;51.420;5.454;2022-10-16T04:51:24;5.53;;;3.20;;
59028;SDS011;45919;51.420;5.454;2022-10-16T04:52:27;5.70;;;3.08;;
59028;SDS011;45919;51.420;5.454;2022-10-16T04:53:29;6.93;;;3.22;;
59028;SDS011;45919;51.420;5.454;2022-10-16T04:54:30;6.15;;;3.30;;
59028;SDS011;45919;51.420;5.454;2022-10-16T04:55:32;5.20;;;3.38;;
59028;SDS011;45919;51.420;5.454;2022-10-16T04:56:34;5.38;;;3.10;;
59028;SDS011;45919;51.420;5.454;2022-10-16T04:57:41;6.97;;;3.67;;
59028;SDS011;45919;51.420;5.454;2022-10-16T04:58:42;5.45;;;3.28;;
59028;SDS011;45919;51.420;5.454;2022-10-16T04:59:44;6.45;;;3.38;;
59028;SDS011;45919;51.420;5.454;2022-10-16T05:00:46;5.65;;;3.55;;
59028;SDS011;45919;51.420;5.454;2022-10-16T05:01:48;6.38;;;3.15;;
59028;SDS011;45919;51.420;5.454;2022-10-16T05:02:50;5.28;;;3.22;;
59028;SDS011;45919;51.420;5.454;2022-10-16T05:03:51;7.47;;;3.50;;
59028;SDS011;45919;51.420;5.454;2022-10-16T05:04:53;6.80;;;3.30;;
59028;SDS011;45919;51.420;5.454;2022-10-16T05:05:54;5.85;;;3.40;;
59028;SDS011;45919;51.420;5.454;2022-10-16T05:06:57;4.05;;;3.20;;
59028;SDS011;45919;51.420;5.454;2022-10-16T05:07:59;6.93;;;3.10;;
59028;SDS011;45919;51.420;5.454;2022-10-16T05:09:00;4.10;;;3.45;;
59028;SDS011;45919;51.420;5.454;2022-10-16T05:10:02;5.82;;;3.38;;
59028;SDS011;45919;51.420;5.454;2022-10-16T05:11:04;5.95;;;3.00;;
59028;SDS011;45919;51.420;5.454;2022-10-16T05:12:05;6.28;;;3.22;;
59028;SDS011;45919;51.420;5.454;2022-10-16T05:13:07;4.60;;;3.40;;
59028;SDS011;45919;51.420;5.454;2022-10-16T05:14:09;4.40;;;2.97;;
59028;SDS011;45919;51.420;5.454;2022-10-16T05:15:11;4.32;;;3.22;;
59028;SDS011;45919;51.420;5.454;2022-10-16T05:16:13;5.30;;;3.40;;
59028;SDS011;45919;51.420;5.454;2022-10-16T05:17:14;5.05;;;3.20;;
59028;SDS011;45919;51.420;5.454;2022-10-16T05:18:16;5.65;;;3.00;;
59028;SDS011;45919;51.420;5.454;2022-10-16T05:19:18;4.60;;;2.67;;
59028;SDS011;45919;51.420;5.454;2022-10-16T05:20:27;4.53;;;3.20;;
59028;SDS011;45919;51.420;5.454;2022-10-16T05:21:29;5.80;;;3.22;;
59028;SDS011;45919;51.420;5.454;2022-10-16T05:22:30;5.68;;;3.38;;
59028;SDS011;45919;51.420;5.454;2022-10-16T05:23:32;4.40;;;3.20;;
59028;SDS011;45919;51.420;5.454;2022-10-16T05:24:34;3.60;;;3.15;;
59028;SDS011;45919;51.420;5.454;2022-10-16T05:25:36;4.68;;;3.03;;
59028;SDS011;45919;51.420;5.454;2022-10-16T05:26:38;5.78;;;3.33;;
59028;SDS011;45919;51.420;5.454;2022-10-16T05:27:39;7.15;;;3.28;;
59028;SDS011;45919;51.420;5.454;2022-10-16T05:28:41;6.13;;;3.60;;
59028;SDS011;45919;51.420;5.454;2022-10-16T05:29:42;4.55;;;3.05;;
59028;SDS011;45919;51.420;5.454;2022-10-16T05:30:46;7.65;;;3.22;;
59028;SDS011;45919;51.420;5.454;2022-10-16T05:31:51;5.20;;;3.53;;
59028;SDS011;45919;51.420;5.454;2022-10-16T05:32:54;4.32;;;3.40;;
59028;SDS011;45919;51.420;5.454;2022-10-16T05:33:59;6.50;;;3.08;;
59028;SDS011;45919;51.420;5.454;2022-10-16T05:35:01;5.45;;;3.40;;
59028;SDS011;45919;51.420;5.454;2022-10-16T05:36:03;6.05;;;3.10;;
59028;SDS011;45919;51.420;5.454;2022-10-16T05:37:06;4.45;;;3.40;;
59028;SDS011;45919;51.420;5.454;2022-10-16T05:38:08;5.30;;;3.55;;
59028;SDS011;45919;51.420;5.454;2022-10-16T05:39:09;5.55;;;3.10;;
59028;SDS011;45919;51.420;5.454;2022-10-16T05:40:11;5.25;;;3.22;;
59028;SDS011;45919;51.420;5.454;2022-10-16T05:41:14;6.25;;;3.33;;
59028;SDS011;45919;51.420;5.454;2022-10-16T05:42:15;4.80;;;3.20;;
59028;SDS011;45919;51.420;5.454;2022-10-16T05:43:17;6.03;;;3.45;;
59028;SDS011;45919;51.420;5.454;2022-10-16T05:44:18;7.25;;;3.30;;
59028;SDS011;45919;51.420;5.454;2022-10-16T05:45:20;6.25;;;3.10;;
59028;SDS011;45919;51.420;5.454;2022-10-16T05:46:21;4.30;;;3.28;;
59028;SDS011;45919;51.420;5.454;2022-10-16T05:47:23;7.07;;;3.78;;
59028;SDS011;45919;51.420;5.454;2022-10-16T05:48:25;6.68;;;3.53;;
59028;SDS011;45919;51.420;5.454;2022-10-16T05:49:27;6.07;;;3.40;;
59028;SDS011;45919;51.420;5.454;2022-10-16T05:50:28;5.57;;;3.80;;
59028;SDS011;45919;51.420;5.454;2022-10-16T05:51:30;5.13;;;3.67;;
59028;SDS011;45919;51.420;5.454;2022-10-16T05:52:32;5.45;;;3.83;;
59028;SDS011;45919;51.420;5.454;2022-10-16T05:53:34;6.43;;;3.40;;
59028;SDS011;45919;51.420;5.454;2022-10-16T05:54:36;5.72;;;3.33;;
59028;SDS011;45919;51.420;5.454;2022-10-16T05:55:38;7.43;;;3.40;;
59028;SDS011;45919;51.420;5.454;2022-10-16T05:56:39;6.25;;;3.35;;
59028;SDS011;45919;51.420;5.454;2022-10-16T05:57:41;8.90;;;3.60;;
59028;SDS011;45919;51.420;5.454;2022-10-16T05:58:42;7.57;;;3.80;;
59028;SDS011;45919;51.420;5.454;2022-10-16T05:59:45;6.07;;;3.40;;
59028;SDS011;45919;51.420;5.454;2022-10-16T06:01:00;5.53;;;3.70;;
59028;SDS011;45919;51.420;5.454;2022-10-16T06:02:05;5.60;;;3.67;;
59028;SDS011;45919;51.420;5.454;2022-10-16T06:03:07;6.00;;;3.72;;
59028;SDS011;45919;51.420;5.454;2022-10-16T06:04:09;7.70;;;3.65;;
59028;SDS011;45919;51.420;5.454;2022-10-16T06:05:11;6.13;;;3.83;;
59028;SDS011;45919;51.420;5.454;2022-10-16T06:06:14;6.05;;;3.67;;
59028;SDS011;45919;51.420;5.454;2022-10-16T06:07:17;7.80;;;3.92;;
59028;SDS011;45919;51.420;5.454;2022-10-16T06:08:19;6.18;;;4.20;;
59028;SDS011;45919;51.420;5.454;2022-10-16T06:09:22;9.00;;;5.00;;
59028;SDS011;45919;51.420;5.454;2022-10-16T06:10:23;9.95;;;5.50;;
59028;SDS011;45919;51.420;5.454;2022-10-16T06:11:26;7.25;;;4.30;;
59028;SDS011;45919;51.420;5.454;2022-10-16T06:12:29;6.22;;;4.30;;
59028;SDS011;45919;51.420;5.454;2022-10-16T06:13:31;7.43;;;4.32;;
59028;SDS011;45919;51.420;5.454;2022-10-16T06:14:32;5.65;;;3.50;;
59028;SDS011;45919;51.420;5.454;2022-10-16T06:15:34;7.88;;;4.07;;
59028;SDS011;45919;51.420;5.454;2022-10-16T06:16:36;5.88;;;3.97;;
59028;SDS011;45919;51.420;5.454;2022-10-16T06:17:38;6.72;;;3.67;;
59028;SDS011;45919;51.420;5.454;2022-10-16T06:18:40;7.72;;;4.43;;
59028;SDS011;45919;51.420;5.454;2022-10-16T06:19:41;8.05;;;3.85;;
59028;SDS011;45919;51.420;5.454;2022-10-16T06:20:43;6.82;;;4.05;;
59028;SDS011;45919;51.420;5.454;2022-10-16T06:21:45;6.63;;;3.78;;
59028;SDS011;45919;51.420;5.454;2022-10-16T06:22:46;7.15;;;4.03;;
59028;SDS011;45919;51.420;5.454;2022-10-16T06:23:48;5.93;;;3.75;;
59028;SDS011;45919;51.420;5.454;2022-10-16T06:24:50;7.28;;;4.05;;
59028;SDS011;45919;51.420;5.454;2022-10-16T06:25:51;6.65;;;4.10;;
59028;SDS011;45919;51.420;5.454;2022-10-16T06:26:53;5.32;;;4.05;;
59028;SDS011;45919;51.420;5.454;2022-10-16T06:27:54;6.43;;;4.45;;
59028;SDS011;45919;51.420;5.454;2022-10-16T06:28:56;6.90;;;4.03;;
59028;SDS011;45919;51.420;5.454;2022-10-16T06:29:59;7.15;;;4.30;;
59028;SDS011;45919;51.420;5.454;2022-10-16T06:31:01;7.13;;;3.92;;
59028;SDS011;45919;51.420;5.454;2022-10-16T06:32:05;8.52;;;4.05;;
59028;SDS011;45919;51.420;5.454;2022-10-16T06:33:07;5.78;;;3.97;;
59028;SDS011;45919;51.420;5.454;2022-10-16T06:34:09;7.50;;;4.05;;
59028;SDS011;45919;51.420;5.454;2022-10-16T06:35:12;8.90;;;4.20;;
59028;SDS011;45919;51.420;5.454;2022-10-16T06:36:15;10.05;;;4.57;;
59028;SDS011;45919;51.420;5.454;2022-10-16T06:37:18;6.97;;;4.30;;
59028;SDS011;45919;51.420;5.454;2022-10-16T06:38:19;7.43;;;4.18;;
59028;SDS011;45919;51.420;5.454;2022-10-16T06:39:21;18.35;;;14.05;;
59028;SDS011;45919;51.420;5.454;2022-10-16T06:40:22;17.20;;;12.75;;
59028;SDS011;45919;51.420;5.454;2022-10-16T06:41:24;10.95;;;7.82;;
59028;SDS011;45919;51.420;5.454;2022-10-16T06:42:26;10.57;;;7.32;;